Time;durP1;ratioP1;P1;durP2;ratioP2;P2;SDS_P1;SDS_P2;PMS_P1;PMS_P2;Temp;Humidity;BMP_temperature;BMP_pressure;BME280_temperature;BME280_humidity;BME280_pressure;Samples;Min_cycle;Max_cycle;Signal;HPM_P1;HPM_P2
2021/10/19 00:01:02;;;;;;;7.77;7.07;;;;;;;5.12;94.62;96422.13;5042248;28;20225;-72
2021/10/19 00:03:30;;;;;;;7.80;7.27;;;;;;;5.07;94.61;96412.06;5041004;28;20223;-71
2021/10/19 00:05:58;;;;;;;8.50;7.90;;;;;;;5.06;94.70;96412.19;5038309;28;20212;-71
2021/10/19 00:08:26;;;;;;;8.60;8.00;;;;;;;5.06;94.93;96404.34;5029132;28;20301;-71
2021/10/19 00:10:54;;;;;;;8.50;7.90;;;;;;;5.05;95.38;96402.69;5030435;28;20254;-71
2021/10/19 00:13:22;;;;;;;7.20;6.70;;;;;;;5.08;95.56;96399.81;5040770;28;20703;-71
2021/10/19 00:15:50;;;;;;;8.20;7.60;;;;;;;5.13;95.67;96400.25;5038167;28;20223;-72
2021/10/19 00:18:19;;;;;;;9.77;8.97;;;;;;;5.15;95.79;96398.31;5042405;28;20275;-71
2021/10/19 00:20:48;;;;;;;9.20;8.57;;;;;;;5.10;95.90;96400.50;5033898;28;20222;-72
2021/10/19 00:23:16;;;;;;;9.47;8.77;;;;;;;5.08;95.79;96402.44;5035112;28;20218;-71
2021/10/19 00:25:44;;;;;;;10.83;9.87;;;;;;;5.08;95.69;96405.88;5034843;28;20320;-69
2021/10/19 00:28:12;;;;;;;8.90;8.37;;;;;;;5.07;95.75;96413.84;5037439;28;20261;-72
2021/10/19 00:30:40;;;;;;;9.27;8.60;;;;;;;5.06;95.96;96409.59;5042576;28;20240;-71
2021/10/19 00:33:08;;;;;;;9.03;8.43;;;;;;;5.04;95.93;96412.34;5036243;28;20225;-71
2021/10/19 00:35:38;;;;;;;8.27;7.67;;;;;;;4.81;96.05;96416.06;5037668;28;20306;-71
2021/10/19 00:38:06;;;;;;;9.10;8.40;;;;;;;4.61;97.57;96414.31;5039472;28;20630;-71
2021/10/19 00:40:35;;;;;;;12.83;11.63;;;;;;;5.05;96.96;96421.00;5046689;28;20309;-71
2021/10/19 00:43:04;;;;;;;9.60;8.90;;;;;;;5.05;96.55;96418.41;5047276;28;20233;-71
2021/10/19 00:45:32;;;;;;;8.60;8.00;;;;;;;5.12;96.12;96419.50;5040084;28;20233;-71
2021/10/19 00:48:00;;;;;;;8.37;7.77;;;;;;;5.16;96.15;96414.84;5044910;28;20722;-71
2021/10/19 00:50:28;;;;;;;8.60;8.00;;;;;;;5.10;96.12;96413.56;5040848;28;20316;-71
2021/10/19 00:52:58;;;;;;;7.97;7.47;;;;;;;5.09;95.90;96407.53;5045345;28;20244;-71
2021/10/19 00:55:28;;;;;;;9.30;8.60;;;;;;;5.10;96.03;96411.78;5040398;28;20812;-71
2021/10/19 00:57:56;;;;;;;7.03;6.50;;;;;;;5.13;96.24;96402.88;5042976;28;20784;-71
2021/10/19 01:00:25;;;;;;;7.70;7.20;;;;;;;5.13;96.30;96402.88;5039569;28;20218;-71
2021/10/19 01:02:53;;;;;;;7.70;7.20;;;;;;;5.09;96.37;96401.47;5041127;28;20248;-71
2021/10/19 01:05:21;;;;;;;6.93;6.43;;;;;;;5.10;96.62;96410.97;5045268;28;20604;-71
2021/10/19 01:07:49;;;;;;;7.00;6.50;;;;;;;5.14;96.08;96401.91;5046000;28;20254;-71
2021/10/19 01:10:19;;;;;;;9.13;8.53;;;;;;;5.14;95.79;96396.69;5038391;28;20222;-70
2021/10/19 01:12:47;;;;;;;7.27;6.87;;;;;;;5.16;95.74;96393.91;5043767;28;20257;-72
2021/10/19 01:15:16;;;;;;;6.90;6.40;;;;;;;5.16;95.65;96392.13;5045492;28;20742;-72
2021/10/19 01:17:46;;;;;;;7.50;6.93;;;;;;;5.04;95.74;96390.59;5047388;28;20324;-72
2021/10/19 01:20:18;;;;;;;6.80;6.40;;;;;;;5.03;95.79;96392.38;5035084;28;20225;-72
2021/10/19 01:22:47;;;;;;;6.90;6.40;;;;;;;5.06;95.76;96396.50;5042581;28;20219;-72
2021/10/19 01:25:17;;;;;;;7.23;6.73;;;;;;;5.05;95.98;96390.44;5044371;28;20232;-72
2021/10/19 01:27:48;;;;;;;6.83;6.37;;;;;;;5.00;95.88;96390.00;5040136;28;20234;-71
2021/10/19 01:30:16;;;;;;;8.37;7.67;;;;;;;4.93;95.77;96391.47;5059442;28;20309;-71
2021/10/19 01:32:44;;;;;;;7.60;6.90;;;;;;;4.89;95.97;96391.88;5041662;28;20213;-71
2021/10/19 01:35:13;;;;;;;5.43;5.03;;;;;;;4.92;95.73;96386.38;5044046;28;20228;-71
2021/10/19 01:37:43;;;;;;;6.50;5.97;;;;;;;4.80;95.42;96383.84;5042162;28;20219;-72
2021/10/19 01:40:13;;;;;;;5.90;5.50;;;;;;;4.90;95.64;96385.69;5045666;28;20309;-71
2021/10/19 01:42:42;;;;;;;5.80;5.40;;;;;;;5.08;95.93;96378.88;5038820;28;20254;-72
2021/10/19 01:45:14;;;;;;;5.67;5.30;;;;;;;5.23;95.90;96384.59;5041317;28;20806;-72
2021/10/19 01:47:43;;;;;;;5.30;4.80;;;;;;;5.36;95.39;96380.75;5041288;28;20714;-71
2021/10/19 01:50:12;;;;;;;5.73;3.97;;;;;;;5.41;94.98;96370.72;5035954;28;20316;-71
2021/10/19 01:52:43;;;;;;;5.77;5.30;;;;;;;5.52;94.83;96368.94;5042771;28;20233;-71
2021/10/19 01:55:11;;;;;;;4.70;4.37;;;;;;;5.52;94.77;96369.78;5044689;28;20246;-71
2021/10/19 01:57:39;;;;;;;5.63;4.47;;;;;;;5.53;94.66;96375.84;5034922;28;20229;-71
2021/10/19 02:00:10;;;;;;;4.97;4.40;;;;;;;5.54;94.74;96380.94;5039612;28;20257;-72
2021/10/19 02:02:38;;;;;;;7.37;5.20;;;;;;;5.52;94.58;96379.41;5041015;28;20673;-71
2021/10/19 02:05:08;;;;;;;4.73;4.43;;;;;;;5.50;94.81;96376.94;5041938;28;20317;-71
2021/10/19 02:07:36;;;;;;;4.50;4.20;;;;;;;5.48;95.07;96380.63;5045162;28;20336;-72
2021/10/19 02:10:08;;;;;;;3.30;3.10;;;;;;;5.48;94.72;96372.78;5043487;28;20320;-71
2021/10/19 02:12:36;;;;;;;4.87;4.43;;;;;;;5.53;94.48;96373.22;5044088;28;20285;-71
2021/10/19 02:15:06;;;;;;;5.70;5.07;;;;;;;5.59;93.95;96372.69;5041063;28;20815;-72
2021/10/19 02:17:34;;;;;;;3.53;3.13;;;;;;;5.60;94.02;96371.72;5034932;28;20223;-71
2021/10/19 02:20:02;;;;;;;5.90;4.57;;;;;;;5.68;93.90;96371.88;5038579;28;20639;-72
2021/10/19 02:22:30;;;;;;;4.53;4.13;;;;;;;5.68;93.57;96364.03;5033313;28;20716;-71
2021/10/19 02:24:59;;;;;;;5.33;3.93;;;;;;;5.63;93.77;96361.78;5044504;28;20218;-71
2021/10/19 02:27:28;;;;;;;4.27;3.97;;;;;;;5.61;93.69;96362.91;5043111;28;20260;-71
2021/10/19 02:29:57;;;;;;;3.57;3.37;;;;;;;5.56;93.70;96362.47;5038228;28;20229;-71
2021/10/19 02:32:24;;;;;;;2.80;2.60;;;;;;;5.52;94.28;96361.09;5036566;28;20222;-71
2021/10/19 02:34:53;;;;;;;3.50;3.20;;;;;;;5.50;93.91;96357.78;5043180;28;20226;-71
2021/10/19 02:37:20;;;;;;;3.27;3.07;;;;;;;5.43;93.85;96360.13;5043683;28;20223;-71
2021/10/19 02:39:48;;;;;;;2.50;2.40;;;;;;;5.35;93.78;96352.94;5030022;28;20738;-71
2021/10/19 02:42:16;;;;;;;3.23;3.03;;;;;;;5.30;93.92;96351.66;5039744;28;20248;-71
2021/10/19 02:44:45;;;;;;;5.33;4.93;;;;;;;5.27;93.94;96355.38;5037193;28;20644;-71
2021/10/19 02:47:13;;;;;;;4.53;4.00;;;;;;;5.24;93.56;96360.06;5039749;28;20590;-72
2021/10/19 02:49:42;;;;;;;3.77;3.13;;;;;;;5.17;93.58;96365.00;5041718;28;20255;-71
2021/10/19 02:52:10;;;;;;;3.03;2.83;;;;;;;5.08;93.54;96363.19;5036644;28;20211;-71
2021/10/19 02:54:38;;;;;;;3.17;2.97;;;;;;;5.02;93.35;96356.69;5038090;28;20555;-71
2021/10/19 02:57:06;;;;;;;2.87;2.67;;;;;;;4.99;92.92;96356.97;5041615;28;20323;-71
2021/10/19 02:59:33;;;;;;;3.87;3.57;;;;;;;4.85;92.73;96349.50;5041063;28;20240;-71
2021/10/19 03:02:03;;;;;;;3.33;2.63;;;;;;;4.72;92.57;96334.00;5040810;28;20310;-71
2021/10/19 03:04:31;;;;;;;3.13;2.93;;;;;;;4.58;92.63;96336.97;5044620;28;20222;-71
2021/10/19 03:06:59;;;;;;;3.43;2.77;;;;;;;4.38;92.73;96351.72;5037332;28;20224;-71
2021/10/19 03:09:27;;;;;;;2.57;2.43;;;;;;;4.32;92.95;96361.88;5038566;28;20718;-71
2021/10/19 03:11:55;;;;;;;3.77;3.57;;;;;;;4.36;92.97;96358.84;5044114;28;20293;-71
2021/10/19 03:14:22;;;;;;;4.93;4.63;;;;;;;4.38;92.66;96358.72;5035854;28;20724;-70
2021/10/19 03:16:51;;;;;;;3.97;3.67;;;;;;;4.40;92.95;96351.59;5035538;28;20252;-71
2021/10/19 03:19:20;;;;;;;3.53;3.23;;;;;;;4.42;93.13;96347.91;5042371;28;20692;-71
2021/10/19 03:21:49;;;;;;;3.57;3.37;;;;;;;4.41;93.23;96353.25;5039714;28;20309;-71
2021/10/19 03:24:16;;;;;;;4.40;4.10;;;;;;;4.43;93.40;96357.38;5049461;28;20256;-72
2021/10/19 03:26:45;;;;;;;4.07;3.77;;;;;;;4.47;93.60;96355.34;5042397;28;20647;-71
2021/10/19 03:29:13;;;;;;;3.27;3.07;;;;;;;4.49;93.65;96354.28;5037664;28;20261;-71
2021/10/19 03:31:41;;;;;;;4.93;4.57;;;;;;;4.54;93.73;96351.25;5038739;28;20310;-71
2021/10/19 03:34:09;;;;;;;3.67;3.37;;;;;;;4.60;93.69;96355.97;5041508;28;20221;-71
2021/10/19 03:36:39;;;;;;;2.90;2.80;;;;;;;4.68;93.75;96344.88;5038493;28;20243;-71
2021/10/19 03:39:07;;;;;;;3.63;3.33;;;;;;;4.79;93.78;96345.59;5039772;28;20236;-71
2021/10/19 03:41:35;;;;;;;3.10;2.87;;;;;;;4.87;94.21;96341.50;5037056;28;20728;-71
2021/10/19 03:44:03;;;;;;;6.30;3.73;;;;;;;4.89;93.96;96334.34;5031614;28;20303;-71
2021/10/19 03:46:31;;;;;;;2.40;2.30;;;;;;;4.97;93.84;96331.91;5041564;28;20322;-71
2021/10/19 03:48:59;;;;;;;3.17;2.90;;;;;;;5.07;93.61;96340.59;5039535;28;20228;-71
2021/10/19 03:51:27;;;;;;;2.60;2.40;;;;;;;5.04;93.63;96343.50;5037667;28;20221;-71
2021/10/19 03:53:57;;;;;;;2.27;2.17;;;;;;;5.06;93.57;96341.56;5039054;28;20319;-71
2021/10/19 03:56:25;;;;;;;2.33;2.23;;;;;;;5.02;92.67;96353.25;5036814;28;20237;-71
2021/10/19 03:58:53;;;;;;;2.33;2.13;;;;;;;4.94;92.55;96353.06;5038539;28;20242;-71
2021/10/19 04:01:22;;;;;;;3.07;2.87;;;;;;;4.84;92.14;96364.31;5038237;28;20701;-71
2021/10/19 04:03:51;;;;;;;2.57;2.37;;;;;;;4.76;92.69;96369.41;5035624;28;20226;-71
2021/10/19 04:06:19;;;;;;;2.07;1.97;;;;;;;4.66;92.29;96381.56;5037796;28;20277;-71
2021/10/19 04:08:46;;;;;;;2.67;2.40;;;;;;;4.49;91.82;96374.34;5039926;28;20752;-73
2021/10/19 04:11:16;;;;;;;2.67;2.40;;;;;;;4.43;92.17;96369.63;5040321;28;20227;-71
2021/10/19 04:13:44;;;;;;;3.47;2.43;;;;;;;4.42;92.55;96363.56;5031486;28;20251;-71
2021/10/19 04:16:13;;;;;;;2.77;2.57;;;;;;;4.54;93.32;96372.16;5033176;28;20276;-71
2021/10/19 04:18:40;;;;;;;1.87;1.67;;;;;;;4.66;93.61;96368.50;5041473;28;20273;-72
2021/10/19 04:21:09;;;;;;;2.40;2.20;;;;;;;4.71;93.78;96366.34;5037911;28;20251;-72
2021/10/19 04:23:37;;;;;;;2.47;2.27;;;;;;;4.83;93.99;96370.50;5032839;28;20747;-71
2021/10/19 04:26:05;;;;;;;3.27;2.13;;;;;;;4.75;93.84;96370.34;5037190;28;20316;-71
2021/10/19 04:28:34;;;;;;;3.07;2.57;;;;;;;4.80;93.35;96373.41;5042075;28;20298;-71
2021/10/19 04:31:03;;;;;;;2.27;2.07;;;;;;;4.70;92.85;96377.75;5040865;28;20241;-71
2021/10/19 04:33:31;;;;;;;3.30;3.00;;;;;;;4.54;92.28;96382.63;5036375;28;20269;-71
2021/10/19 04:36:00;;;;;;;2.10;2.00;;;;;;;4.55;92.59;96369.41;5039014;28;20216;-71
2021/10/19 04:38:28;;;;;;;3.30;2.70;;;;;;;4.57;93.28;96377.13;5042044;28;20240;-71
2021/10/19 04:40:56;;;;;;;1.93;1.83;;;;;;;4.65;93.77;96377.31;5032253;28;20233;-71
2021/10/19 04:43:24;;;;;;;2.77;2.57;;;;;;;4.73;93.97;96372.25;5040570;28;20742;-71
2021/10/19 04:45:54;;;;;;;3.07;2.87;;;;;;;4.82;94.02;96370.66;5041290;28;20689;-71
2021/10/19 04:48:24;;;;;;;1.97;1.77;;;;;;;4.82;94.60;96392.41;5056984;28;20301;-71
2021/10/19 04:50:54;;;;;;;2.00;1.90;;;;;;;4.92;94.99;96392.44;5038338;28;20274;-71
2021/10/19 04:53:22;;;;;;;1.40;1.30;;;;;;;5.01;94.57;96385.59;5034843;28;20220;-71
2021/10/19 04:55:50;;;;;;;2.27;1.60;;;;;;;5.11;94.39;96391.69;5046582;28;20251;-71
2021/10/19 04:58:22;;;;;;;6.07;3.43;;;;;;;5.17;94.38;96385.94;5036774;28;20224;-71
2021/10/19 05:00:50;;;;;;;2.00;1.80;;;;;;;5.25;93.99;96380.88;5036349;28;21727;-71
2021/10/19 05:03:21;;;;;;;1.83;1.73;;;;;;;5.32;93.94;96379.38;5036584;28;20218;-71
2021/10/19 05:05:49;;;;;;;2.80;2.57;;;;;;;5.39;93.95;96377.88;5032645;28;20216;-71
2021/10/19 05:08:17;;;;;;;2.77;2.67;;;;;;;5.52;93.71;96368.94;5035028;28;20248;-71
2021/10/19 05:10:47;;;;;;;3.63;3.43;;;;;;;5.58;93.76;96368.41;5038720;28;20225;-71
2021/10/19 05:13:15;;;;;;;3.50;3.23;;;;;;;5.67;93.66;96368.44;5058498;28;20283;-72
2021/10/19 05:15:44;;;;;;;4.17;3.27;;;;;;;5.76;93.82;96374.66;5039848;28;20256;-71
2021/10/19 05:18:14;;;;;;;2.90;2.70;;;;;;;5.80;94.09;96373.38;5044451;28;20240;-71
2021/10/19 05:20:44;;;;;;;4.77;4.37;;;;;;;5.84;93.98;96368.69;5044771;28;20782;-71
2021/10/19 05:23:13;;;;;;;3.87;3.57;;;;;;;5.85;93.95;96359.88;5043038;28;20218;-71
2021/10/19 05:25:42;;;;;;;2.43;2.23;;;;;;;5.88;93.80;96365.69;5041457;28;21019;-66
2021/10/19 05:28:09;;;;;;;2.23;2.03;;;;;;;5.88;93.62;96360.44;5046292;28;20239;-67
2021/10/19 05:30:38;;;;;;;1.80;1.70;;;;;;;5.93;93.57;96353.00;5042177;28;20310;-67
2021/10/19 05:33:07;;;;;;;1.37;1.27;;;;;;;5.99;93.29;96352.47;5045365;28;20285;-67
2021/10/19 05:35:36;;;;;;;1.83;1.70;;;;;;;6.01;93.58;96354.13;5045882;28;20244;-67
2021/10/19 05:38:05;;;;;;;3.63;2.73;;;;;;;6.01;93.13;96344.47;5044771;28;20373;-67
2021/10/19 05:40:34;;;;;;;1.57;1.47;;;;;;;6.03;93.24;96357.41;5052885;28;20207;-67
2021/10/19 05:43:02;;;;;;;1.30;1.20;;;;;;;6.04;93.70;96361.72;5042927;28;20303;-66
2021/10/19 05:45:30;;;;;;;1.70;1.60;;;;;;;6.09;93.48;96356.88;5047377;28;20291;-67
2021/10/19 05:47:58;;;;;;;1.23;1.23;;;;;;;6.10;93.49;96361.16;5043934;28;20226;-67
2021/10/19 05:50:26;;;;;;;1.50;1.40;;;;;;;6.15;93.28;96346.69;5043820;28;20253;-67
2021/10/19 05:52:54;;;;;;;1.50;1.40;;;;;;;6.22;93.04;96346.94;5044621;28;20226;-67
2021/10/19 05:55:24;;;;;;;2.23;1.23;;;;;;;6.29;93.05;96361.13;5046558;28;20233;-67
2021/10/19 05:57:52;;;;;;;1.60;1.50;;;;;;;6.30;92.89;96354.91;5045129;28;20659;-67
2021/10/19 06:00:21;;;;;;;2.80;1.60;;;;;;;6.38;93.12;96356.84;5043883;28;20226;-67
2021/10/19 06:02:49;;;;;;;1.53;1.40;;;;;;;6.44;92.97;96341.38;5047181;28;20246;-67
2021/10/19 06:05:17;;;;;;;2.93;2.10;;;;;;;6.66;91.19;96349.88;5047073;28;20227;-67
2021/10/19 06:07:45;;;;;;;1.53;1.43;;;;;;;6.73;90.63;96345.72;5043053;28;20243;-67
2021/10/19 06:10:13;;;;;;;2.23;2.00;;;;;;;6.81;90.99;96340.59;5044392;28;20253;-67
2021/10/19 06:12:42;;;;;;;2.77;2.50;;;;;;;6.96;89.91;96341.78;5045471;28;20322;-67
2021/10/19 06:15:15;;;;;;;1.43;1.33;;;;;;;7.16;87.88;96341.69;5036457;28;20310;-67
2021/10/19 06:17:44;;;;;;;1.93;1.50;;;;;;;7.33;87.18;96348.78;5034923;28;20236;-68
2021/10/19 06:20:12;;;;;;;1.63;1.43;;;;;;;7.40;87.80;96349.81;5044927;28;20246;-67
2021/10/19 06:22:40;;;;;;;1.07;0.97;;;;;;;7.44;88.13;96340.69;5043674;28;20649;-67
2021/10/19 06:25:09;;;;;;;1.23;1.13;;;;;;;7.39;88.69;96356.03;5045337;28;20242;-67
2021/10/19 06:27:37;;;;;;;1.03;1.00;;;;;;;7.43;88.97;96354.78;5046553;28;20223;-67
2021/10/19 06:30:09;;;;;;;3.03;1.83;;;;;;;7.52;88.66;96348.66;5043149;28;20373;-67
2021/10/19 06:32:40;;;;;;;2.00;1.90;;;;;;;7.63;89.01;96366.00;5041836;28;20286;-67
2021/10/19 06:35:09;;;;;;;2.13;1.87;;;;;;;7.68;88.62;96356.72;5044148;28;20254;-67
2021/10/19 06:37:37;;;;;;;1.90;1.43;;;;;;;7.82;87.94;96355.38;5037820;28;20324;-67
2021/10/19 06:40:07;;;;;;;1.10;1.00;;;;;;;7.91;87.56;96358.91;5044707;28;20215;-67
2021/10/19 06:42:35;;;;;;;0.80;0.80;;;;;;;8.02;87.25;96363.91;5038344;28;20243;-67
2021/10/19 06:45:03;;;;;;;1.57;1.47;;;;;;;8.12;87.22;96364.66;5041311;28;20322;-67
2021/10/19 06:47:34;;;;;;;1.03;0.90;;;;;;;8.21;85.35;96361.13;5045627;28;20230;-67
2021/10/19 06:50:04;;;;;;;1.00;0.87;;;;;;;8.35;84.16;96362.44;5044888;28;20215;-67
2021/10/19 06:52:33;;;;;;;2.00;1.23;;;;;;;8.59;82.43;96363.56;5039874;28;20230;-67
2021/10/19 06:55:01;;;;;;;2.13;1.50;;;;;;;8.56;82.92;96362.06;5041739;28;20276;-67
2021/10/19 06:57:30;;;;;;;1.97;1.63;;;;;;;8.64;84.03;96370.03;5042273;28;20252;-67
2021/10/19 07:00:03;;;;;;;1.90;1.57;;;;;;;8.81;83.33;96374.41;5042717;28;20232;-67
2021/10/19 07:02:31;;;;;;;2.20;1.73;;;;;;;8.92;80.68;96373.31;5038525;28;20228;-67
2021/10/19 07:05:00;;;;;;;2.47;1.47;;;;;;;9.02;79.93;96376.66;5044962;28;20281;-67
2021/10/19 07:07:29;;;;;;;2.43;2.23;;;;;;;9.13;79.75;96373.75;5043033;28;20318;-68
2021/10/19 07:09:57;;;;;;;1.57;1.40;;;;;;;9.22;79.72;96382.53;5041423;28;20270;-68
2021/10/19 07:12:26;;;;;;;1.90;1.53;;;;;;;9.32;80.18;96382.41;5044990;28;20228;-68
2021/10/19 07:14:54;;;;;;;1.63;1.53;;;;;;;9.39;79.60;96372.88;5044468;28;20252;-68
2021/10/19 07:17:23;;;;;;;6.63;1.67;;;;;;;9.48;79.82;96384.28;5044114;28;20699;-68
2021/10/19 07:19:51;;;;;;;1.83;1.70;;;;;;;9.54;80.89;96388.94;5045064;28;20580;-67
2021/10/19 07:22:21;;;;;;;1.40;1.30;;;;;;;9.62;80.82;96383.69;5039717;28;20224;-67
2021/10/19 07:24:49;;;;;;;2.87;1.13;;;;;;;9.72;80.08;96383.56;5041274;28;20281;-67
2021/10/19 07:27:17;;;;;;;1.87;1.47;;;;;;;9.80;80.22;96392.31;5033125;28;20613;-68
2021/10/19 07:29:45;;;;;;;2.00;1.83;;;;;;;9.89;79.59;96391.34;5045022;28;20498;-68
2021/10/19 07:32:14;;;;;;;1.90;1.10;;;;;;;9.94;80.27;96399.56;5043601;28;20213;-68
2021/10/19 07:34:42;;;;;;;2.97;1.30;;;;;;;9.96;80.64;96397.59;5033264;28;20256;-68
2021/10/19 07:37:11;;;;;;;1.77;1.70;;;;;;;10.03;80.86;96396.94;5039093;28;20230;-67
2021/10/19 07:39:42;;;;;;;1.93;1.63;;;;;;;10.16;79.08;96392.03;5044481;28;20265;-68
2021/10/19 07:42:11;;;;;;;3.87;1.50;;;;;;;10.34;78.85;96398.03;5037139;28;20246;-67
2021/10/19 07:44:39;;;;;;;1.30;1.17;;;;;;;10.47;79.83;96398.34;5045324;28;20261;-68
2021/10/19 07:47:08;;;;;;;8.20;1.83;;;;;;;10.62;80.07;96405.63;5044911;28;20211;-68
2021/10/19 07:49:35;;;;;;;1.30;0.97;;;;;;;10.73;80.13;96405.28;5045341;28;20311;-68
2021/10/19 07:52:04;;;;;;;1.43;1.33;;;;;;;10.78;80.26;96408.22;5043204;28;20238;-68
2021/10/19 07:54:33;;;;;;;3.60;1.93;;;;;;;10.88;80.20;96410.69;5044771;28;20313;-68
2021/10/19 07:57:03;;;;;;;2.93;1.13;;;;;;;10.91;80.23;96411.19;5044373;28;20235;-68
2021/10/19 07:59:31;;;;;;;1.20;1.20;;;;;;;10.97;80.10;96410.53;5037928;28;20790;-68
2021/10/19 08:01:58;;;;;;;0.80;0.80;;;;;;;11.04;80.90;96408.03;5042537;28;20791;-68
2021/10/19 08:04:27;;;;;;;1.33;1.23;;;;;;;11.08;81.87;96417.28;5044932;28;20219;-68
2021/10/19 08:06:55;;;;;;;1.87;1.43;;;;;;;11.15;81.71;96401.56;5041820;28;20306;-68
2021/10/19 08:09:23;;;;;;;2.20;1.60;;;;;;;11.22;81.62;96415.75;5045051;28;20309;-68
2021/10/19 08:11:51;;;;;;;5.10;1.93;;;;;;;11.27;82.10;96414.25;5042963;28;20322;-68
2021/10/19 08:14:20;;;;;;;2.43;2.23;;;;;;;11.30;82.42;96418.38;5036324;28;20253;-68
2021/10/19 08:16:48;;;;;;;2.33;2.23;;;;;;;11.36;82.58;96418.53;5037844;28;20343;-68
2021/10/19 08:19:17;;;;;;;1.73;1.63;;;;;;;11.51;82.55;96423.09;5045089;28;20220;-68
2021/10/19 08:21:45;;;;;;;4.40;2.00;;;;;;;11.61;82.01;96421.91;5042179;28;20649;-68
2021/10/19 08:24:13;;;;;;;2.17;1.97;;;;;;;11.75;81.18;96420.34;5040837;28;20271;-68
2021/10/19 08:26:44;;;;;;;2.57;1.27;;;;;;;11.83;80.13;96411.59;5043945;28;20241;-68
2021/10/19 08:29:12;;;;;;;3.00;2.27;;;;;;;11.93;79.94;96420.13;5043776;28;20212;-68
2021/10/19 08:31:42;;;;;;;1.60;1.50;;;;;;;11.95;79.93;96418.13;5043199;28;20228;-68
2021/10/19 08:34:10;;;;;;;2.00;1.90;;;;;;;11.94;79.61;96413.84;5038720;28;20225;-68
2021/10/19 08:36:38;;;;;;;3.00;1.30;;;;;;;11.94;79.51;96413.84;5043390;28;20245;-68
2021/10/19 08:39:06;;;;;;;1.67;1.37;;;;;;;11.96;80.02;96420.59;5043500;28;20759;-68
2021/10/19 08:41:38;;;;;;;2.80;1.50;;;;;;;11.93;79.81;96414.84;5042933;28;20244;-68
2021/10/19 08:44:05;;;;;;;1.47;1.37;;;;;;;12.02;77.39;96412.97;5042806;28;20312;-68
2021/10/19 08:46:33;;;;;;;1.43;1.33;;;;;;;12.07;76.31;96411.47;5042571;28;20312;-68
2021/10/19 08:49:03;;;;;;;8.63;1.80;;;;;;;12.13;76.12;96415.22;5044606;28;20240;-68
2021/10/19 08:51:31;;;;;;;1.60;1.47;;;;;;;12.17;76.13;96413.88;5037577;28;20767;-68
2021/10/19 08:53:59;;;;;;;17.23;4.17;;;;;;;12.20;75.20;96417.00;5042418;28;20230;-68
2021/10/19 08:56:28;;;;;;;2.10;1.93;;;;;;;12.29;75.26;96409.00;5044760;28;20630;-68
2021/10/19 08:59:00;;;;;;;2.00;1.90;;;;;;;12.35;74.15;96406.50;5046705;28;20610;-68
2021/10/19 09:01:35;;;;;;;3.10;1.23;;;;;;;12.47;73.61;96404.25;5053797;28;20251;-68
2021/10/19 09:04:10;;;;;;;2.73;1.87;;;;;;;12.52;73.39;96397.41;5046804;28;20225;-68
2021/10/19 09:06:40;;;;;;;1.87;1.67;;;;;;;12.55;72.51;96398.88;5045475;28;20248;-68
2021/10/19 09:09:10;;;;;;;1.93;1.83;;;;;;;12.66;72.52;96401.09;5046512;28;20229;-69
2021/10/19 09:11:39;;;;;;;2.23;2.03;;;;;;;12.72;72.54;96400.41;5047433;28;20218;-69
2021/10/19 09:14:07;;;;;;;6.17;2.00;;;;;;;12.77;74.39;96399.84;5045616;28;20237;-69
2021/10/19 09:16:40;;;;;;;4.37;2.50;;;;;;;12.84;74.36;96407.91;5044511;28;20726;-69
2021/10/19 09:19:14;;;;;;;2.07;1.87;;;;;;;12.91;74.33;96403.53;5044229;28;20224;-69
2021/10/19 09:21:50;;;;;;;4.87;2.10;;;;;;;12.99;73.40;96406.13;5034721;28;20575;-69
2021/10/19 09:24:20;;;;;;;3.67;2.07;;;;;;;13.07;73.92;96421.91;5038404;28;20555;-69
2021/10/19 09:26:58;;;;;;;1.73;1.63;;;;;;;13.15;74.75;96411.25;5041049;28;20235;-68
2021/10/19 09:29:28;;;;;;;2.23;1.37;;;;;;;13.21;75.00;96405.25;5045343;28;20518;-69
2021/10/19 09:31:57;;;;;;;3.70;1.73;;;;;;;13.25;75.22;96406.53;5035923;28;20439;-68
2021/10/19 09:34:31;;;;;;;1.23;1.13;;;;;;;13.29;75.42;96409.66;5046763;28;20228;-69
2021/10/19 09:37:00;;;;;;;1.80;1.17;;;;;;;13.35;75.73;96407.09;5043743;28;20322;-69
2021/10/19 09:39:37;;;;;;;3.17;1.57;;;;;;;13.38;76.27;96417.31;5041850;28;20222;-68
2021/10/19 09:42:07;;;;;;;2.63;1.87;;;;;;;13.51;76.16;96426.47;5042406;28;20229;-68
2021/10/19 09:44:36;;;;;;;2.20;1.50;;;;;;;13.56;77.39;96426.75;5046234;28;20227;-69
2021/10/19 09:47:05;;;;;;;1.10;1.00;;;;;;;13.63;76.83;96428.50;5042553;28;20258;-68
2021/10/19 09:49:35;;;;;;;1.90;1.47;;;;;;;13.73;77.66;96424.72;5047107;28;20248;-69
2021/10/19 09:52:06;;;;;;;1.83;1.73;;;;;;;13.86;77.57;96420.41;5044273;28;20294;-69
2021/10/19 09:54:35;;;;;;;3.23;2.00;;;;;;;13.94;76.20;96417.66;5045022;28;20484;-69
2021/10/19 09:57:05;;;;;;;3.33;1.90;;;;;;;14.02;75.82;96405.28;5046658;28;20226;-69
2021/10/19 09:59:36;;;;;;;3.73;3.43;;;;;;;14.11;74.12;96401.50;5043818;28;20246;-69
2021/10/19 10:02:04;;;;;;;3.13;2.93;;;;;;;14.21;73.71;96394.06;5044768;28;20305;-69
2021/10/19 10:04:35;;;;;;;3.13;2.93;;;;;;;14.33;73.37;96395.19;5046787;28;20233;-69
2021/10/19 10:07:05;;;;;;;2.03;1.50;;;;;;;14.37;73.34;96411.59;5043041;28;20262;-69
2021/10/19 10:09:35;;;;;;;1.83;1.73;;;;;;;14.56;72.36;96410.16;5044171;28;20277;-69
2021/10/19 10:12:06;;;;;;;1.53;1.43;;;;;;;14.61;73.59;96418.38;5044178;28;20211;-69
2021/10/19 10:14:41;;;;;;;3.10;2.20;;;;;;;14.74;74.59;96435.25;5038677;28;20255;-68
2021/10/19 10:17:10;;;;;;;4.10;1.87;;;;;;;14.77;74.87;96440.19;5042645;28;20262;-68
2021/10/19 10:19:41;;;;;;;1.60;1.50;;;;;;;14.97;74.34;96424.41;5046287;28;20596;-69
2021/10/19 10:22:16;;;;;;;1.27;1.17;;;;;;;15.10;73.81;96426.38;5044621;28;20298;-69
2021/10/19 10:24:46;;;;;;;1.93;1.37;;;;;;;15.03;70.79;96428.16;5044804;28;20242;-68
2021/10/19 10:27:16;;;;;;;1.00;1.00;;;;;;;15.08;69.81;96431.84;5052880;28;20325;-68
2021/10/19 10:29:47;;;;;;;2.50;2.37;;;;;;;15.14;70.77;96429.44;5037465;28;20250;-68
2021/10/19 10:32:24;;;;;;;1.20;1.10;;;;;;;15.21;70.22;96419.69;5039012;28;20218;-69
2021/10/19 10:35:05;;;;;;;2.07;1.40;;;;;;;15.26;68.81;96428.72;5040178;28;20284;-68
2021/10/19 10:37:40;;;;;;;1.47;1.37;;;;;;;15.35;67.59;96416.09;5032940;28;20321;-68
2021/10/19 10:40:13;;;;;;;1.70;1.20;;;;;;;14.88;69.77;96420.25;5046216;28;20225;-68
2021/10/19 10:42:42;;;;;;;2.60;1.20;;;;;;;14.69;70.61;96426.22;5045705;28;20313;-69
2021/10/19 10:45:18;;;;;;;1.03;0.93;;;;;;;14.68;70.02;96425.38;5042670;28;20222;-68
2021/10/19 10:47:48;;;;;;;2.40;2.03;;;;;;;15.18;68.41;96410.28;5043871;28;20334;-68
2021/10/19 10:50:18;;;;;;;1.40;1.30;;;;;;;15.18;66.95;96412.06;5047564;28;20227;-68
2021/10/19 10:52:57;;;;;;;6.10;2.33;;;;;;;15.00;67.20;96400.13;5042981;28;20593;-68
2021/10/19 10:55:25;;;;;;;1.97;1.67;;;;;;;14.98;68.15;96415.41;5037235;28;20223;-68
2021/10/19 10:57:53;;;;;;;2.27;2.07;;;;;;;15.13;67.35;96406.53;5043338;28;20663;-68
2021/10/19 11:00:26;;;;;;;3.63;1.67;;;;;;;15.13;67.99;96406.53;5044306;28;20343;-68
2021/10/19 11:03:08;;;;;;;2.23;1.83;;;;;;;15.04;69.77;96414.66;5045139;28;20245;-68
2021/10/19 11:05:49;;;;;;;1.93;1.83;;;;;;;15.04;67.82;96409.34;5041987;28;20272;-68
2021/10/19 11:08:21;;;;;;;1.70;1.60;;;;;;;14.93;66.40;96412.53;5040970;28;20331;-68
2021/10/19 11:10:52;;;;;;;3.00;2.77;;;;;;;15.14;67.48;96405.53;5045205;28;20302;-69
2021/10/19 11:13:19;;;;;;;1.87;1.70;;;;;;;15.06;68.16;96396.66;5041668;28;20226;-68
2021/10/19 11:15:51;;;;;;;3.17;2.97;;;;;;;14.81;67.97;96398.09;5032668;28;20219;-68
2021/10/19 11:18:20;;;;;;;5.03;2.70;;;;;;;14.76;69.15;96398.69;5045669;28;20237;-68
2021/10/19 11:20:55;;;;;;;2.90;2.70;;;;;;;14.87;68.70;96394.69;5041121;28;20288;-69
2021/10/19 11:23:25;;;;;;;1.67;1.57;;;;;;;14.96;69.01;96390.88;5043549;28;20313;-68
2021/10/19 11:25:57;;;;;;;2.23;1.57;;;;;;;14.81;69.13;96411.38;5042254;28;20219;-69
2021/10/19 11:28:25;;;;;;;3.10;2.37;;;;;;;14.84;69.75;96405.72;5043353;28;20301;-68
2021/10/19 11:30:54;;;;;;;1.60;1.50;;;;;;;14.90;69.81;96410.25;5040657;28;20307;-68
2021/10/19 11:33:22;;;;;;;2.00;1.87;;;;;;;15.00;69.94;96402.78;5034843;28;20277;-68
2021/10/19 11:35:50;;;;;;;1.60;1.53;;;;;;;15.07;69.72;96408.94;5032720;28;20233;-69
2021/10/19 11:38:22;;;;;;;2.00;1.90;;;;;;;14.88;68.94;96404.31;5031811;28;20214;-68
2021/10/19 11:40:51;;;;;;;1.40;1.30;;;;;;;14.92;69.70;96402.91;5035584;28;20692;-69
2021/10/19 11:43:20;;;;;;;2.13;1.73;;;;;;;14.92;69.87;96397.59;5036855;28;20242;-68
2021/10/19 11:45:48;;;;;;;2.73;2.53;;;;;;;14.68;70.75;96404.13;5037677;28;20218;-68
2021/10/19 11:48:17;;;;;;;2.77;2.07;;;;;;;14.74;70.81;96394.59;5041116;28;20326;-68